Time;durP1;ratioP1;P1;durP2;ratioP2;P2;SDS_P1;SDS_P2;PMS_P1;PMS_P2;Temp;Humidity;BMP_temperature;BMP_pressure;BME280_temperature;BME280_humidity;BME280_pressure;Samples;Min_cycle;Max_cycle;Signal;HPM_P1;HPM_P2
2022/01/28 00:04:50;;;;;;;58.53;8.40;;;4.50;99.90;;;;;;4965736;28;20621;-68
2022/01/28 00:07:16;;;;;;;20.65;6.65;;;4.50;99.90;;;;;;4981582;28;20570;-68
2022/01/28 00:09:42;;;;;;;22.70;7.57;;;4.50;99.90;;;;;;4957427;28;20047;-68
2022/01/28 00:12:30;;;;;;;30.83;7.75;;;4.50;99.90;;;;;;4941152;29;20110;-68
2022/01/28 00:15:07;;;;;;;17.38;5.78;;;4.50;99.90;;;;;;4967408;28;20055;-68
2022/01/28 00:39:12;;;;;;;24.83;5.72;;;4.60;99.90;;;;;;4968581;28;20047;-67
2022/01/28 00:41:38;;;;;;;28.58;5.88;;;4.60;99.90;;;;;;4966983;28;20074;-67
2022/01/28 00:44:04;;;;;;;35.28;7.35;;;4.60;99.90;;;;;;4984296;28;20385;-68
2022/01/28 00:46:30;;;;;;;36.97;7.93;;;4.60;99.90;;;;;;4967671;28;20093;-68
2022/01/28 00:48:56;;;;;;;41.33;7.70;;;4.60;99.90;;;;;;4978924;28;20155;-68
2022/01/28 00:51:22;;;;;;;28.80;6.53;;;4.60;99.90;;;;;;4968107;28;20427;-68
2022/01/28 00:53:48;;;;;;;33.08;7.28;;;4.60;99.90;;;;;;4966942;28;20042;-67
2022/01/28 00:56:14;;;;;;;31.02;7.40;;;4.60;99.90;;;;;;4971751;28;20058;-68
2022/01/28 00:58:39;;;;;;;39.63;7.15;;;4.60;99.90;;;;;;4967122;28;20468;-67
2022/01/28 01:01:06;;;;;;;37.30;7.97;;;4.60;99.90;;;;;;4967470;28;20047;-67
2022/01/28 01:03:32;;;;;;;27.35;7.32;;;4.60;99.90;;;;;;4968084;28;20134;-68
2022/01/28 01:05:57;;;;;;;29.42;6.50;;;4.60;99.90;;;;;;4965829;28;20551;-67
2022/01/28 01:08:23;;;;;;;22.73;6.97;;;4.60;99.90;;;;;;4962483;28;20052;-67
2022/01/28 01:10:52;;;;;;;33.20;7.45;;;4.50;99.90;;;;;;4966268;28;20062;-68
2022/01/28 01:13:18;;;;;;;34.28;6.97;;;4.50;99.90;;;;;;4962176;28;20571;-67
2022/01/28 01:15:47;;;;;;;23.88;6.93;;;4.50;99.90;;;;;;4967664;28;20125;-68
2022/01/28 01:18:20;;;;;;;31.92;7.22;;;4.50;99.90;;;;;;4963141;28;20050;-68
2022/01/28 01:23:23;;;;;;;22.65;6.38;;;4.50;99.90;;;;;;4969792;28;20122;-67
2022/01/28 01:28:20;;;;;;;29.92;7.68;;;4.50;99.90;;;;;;4968182;28;20157;-67
2022/01/28 01:30:48;;;;;;;23.17;7.78;;;4.60;99.90;;;;;;4962639;28;20058;-68
2022/01/28 01:33:16;;;;;;;36.13;8.15;;;4.60;99.90;;;;;;4962010;28;20616;-67
2022/01/28 01:35:42;;;;;;;31.08;7.50;;;4.60;99.90;;;;;;4961565;28;20393;-67
2022/01/28 01:38:10;;;;;;;25.65;6.28;;;4.60;99.90;;;;;;4968511;28;20050;-67
2022/01/28 01:40:59;;;;;;;26.58;6.93;;;4.50;99.90;;;;;;4967510;28;20072;-68
2022/01/28 01:54:03;;;;;;;30.45;7.65;;;4.60;99.90;;;;;;4970755;28;20061;-67
2022/01/28 01:56:29;;;;;;;36.38;8.02;;;4.60;99.90;;;;;;4982551;28;20050;-67
2022/01/28 01:58:58;;;;;;;29.65;6.20;;;4.60;99.90;;;;;;4965142;28;20158;-68
2022/01/28 02:01:24;;;;;;;29.48;7.60;;;4.60;99.90;;;;;;4975758;28;20051;-67
2022/01/28 02:03:50;;;;;;;37.25;9.38;;;4.60;99.90;;;;;;4981833;28;20090;-67
2022/01/28 02:06:20;;;;;;;26.08;8.02;;;4.60;99.90;;;;;;4970695;28;20494;-68
2022/01/28 02:08:46;;;;;;;30.88;5.75;;;4.60;99.90;;;;;;4969048;28;20811;-67
2022/01/28 02:11:12;;;;;;;34.95;8.55;;;4.60;99.90;;;;;;4971048;28;20039;-67
2022/01/28 02:13:39;;;;;;;40.63;8.18;;;4.70;99.90;;;;;;4972021;28;20515;-67
2022/01/28 02:16:06;;;;;;;37.58;8.82;;;4.70;99.90;;;;;;4966068;28;20050;-67
2022/01/28 02:18:32;;;;;;;38.15;8.70;;;4.60;99.90;;;;;;4960443;28;20046;-67
2022/01/28 02:21:10;;;;;;;27.77;7.57;;;4.60;99.90;;;;;;4971128;28;20050;-67
2022/01/28 02:23:37;;;;;;;37.78;8.80;;;4.60;99.90;;;;;;4970131;28;20109;-67
2022/01/28 02:26:03;;;;;;;49.25;9.13;;;4.60;99.90;;;;;;4970785;28;20085;-67
2022/01/28 02:28:33;;;;;;;55.55;9.43;;;4.60;99.90;;;;;;4986024;28;20546;-67
2022/01/28 02:31:04;;;;;;;52.47;9.90;;;4.60;99.90;;;;;;4968905;28;20114;-67
2022/01/28 02:33:30;;;;;;;33.40;9.48;;;4.70;99.90;;;;;;4968855;28;20046;-67
2022/01/28 02:36:03;;;;;;;45.47;8.23;;;4.70;99.90;;;;;;4971029;28;20126;-67
2022/01/28 02:38:29;;;;;;;39.40;8.05;;;4.70;99.90;;;;;;4969874;28;20043;-67
2022/01/28 02:40:58;;;;;;;39.13;8.43;;;4.60;99.90;;;;;;4962961;28;20051;-67
2022/01/28 02:43:34;;;;;;;48.05;9.95;;;4.70;99.90;;;;;;4968696;28;20043;-67
2022/01/28 02:46:07;;;;;;;39.58;10.00;;;4.70;99.90;;;;;;4967306;28;20480;-67
2022/01/28 02:48:35;;;;;;;39.53;8.75;;;4.70;99.90;;;;;;4958786;28;20070;-68
2022/01/28 02:51:05;;;;;;;47.55;9.15;;;4.70;99.90;;;;;;4972208;28;20042;-67
2022/01/28 02:53:42;;;;;;;46.53;9.73;;;4.70;99.90;;;;;;4980775;28;20042;-67
2022/01/28 02:56:19;;;;;;;44.47;10.82;;;4.70;99.90;;;;;;4985205;28;20042;-68
2022/01/28 02:58:45;;;;;;;40.97;11.23;;;4.70;99.90;;;;;;4969537;28;20110;-67
2022/01/28 03:01:15;;;;;;;52.25;11.68;;;4.70;99.90;;;;;;4956984;28;20575;-67
2022/01/28 03:03:45;;;;;;;63.47;9.82;;;4.70;99.90;;;;;;4969173;28;20149;-67
2022/01/28 03:06:15;;;;;;;31.52;8.32;;;4.70;99.90;;;;;;4960944;28;20046;-67
2022/01/28 03:08:46;;;;;;;55.33;10.27;;;4.70;99.90;;;;;;4964966;28;20085;-67
2022/01/28 03:16:29;;;;;;;47.25;11.27;;;4.70;99.90;;;;;;4958949;28;20047;-67
2022/01/28 03:19:01;;;;;;;47.25;9.43;;;4.70;99.90;;;;;;4963667;28;20054;-67
2022/01/28 03:23:57;;;;;;;37.25;8.55;;;4.80;99.90;;;;;;4968232;28;20050;-67
2022/01/28 03:26:27;;;;;;;46.30;9.23;;;4.80;99.90;;;;;;4969467;28;20077;-67
2022/01/28 03:28:53;;;;;;;38.35;9.75;;;4.80;99.90;;;;;;4970641;28;20461;-67
2022/01/28 03:31:19;;;;;;;46.28;9.52;;;4.80;99.90;;;;;;4966972;28;20134;-67
2022/01/28 03:33:45;;;;;;;40.83;9.40;;;4.80;99.90;;;;;;4956463;28;20134;-67
2022/01/28 03:36:12;;;;;;;30.15;7.68;;;4.80;99.90;;;;;;4961589;28;20463;-67
2022/01/28 03:38:39;;;;;;;51.35;11.05;;;4.90;99.90;;;;;;4962367;28;20045;-67
2022/01/28 03:41:11;;;;;;;42.55;10.07;;;4.90;99.90;;;;;;4953446;28;20382;-67
2022/01/28 03:43:38;;;;;;;41.67;9.63;;;4.90;99.90;;;;;;4969469;28;20464;-67
2022/01/28 03:46:03;;;;;;;46.53;9.65;;;4.90;99.90;;;;;;4952376;28;20059;-67
2022/01/28 03:48:29;;;;;;;50.78;9.75;;;5.00;99.90;;;;;;4964090;28;20035;-68
2022/01/28 03:50:54;;;;;;;56.13;11.40;;;5.00;99.90;;;;;;4967023;28;20046;-67
2022/01/28 03:53:20;;;;;;;54.00;10.25;;;5.00;99.90;;;;;;4963065;28;20043;-67
2022/01/28 03:55:46;;;;;;;39.53;8.38;;;5.00;99.90;;;;;;4967015;28;20404;-67
2022/01/28 03:58:15;;;;;;;38.85;9.45;;;5.00;99.90;;;;;;4959281;28;20110;-67
2022/01/28 04:00:41;;;;;;;45.58;8.80;;;5.00;99.90;;;;;;4955042;28;20416;-67
2022/01/28 04:13:30;;;;;;;29.40;7.90;;;5.00;99.90;;;;;;4976261;28;20069;-67
2022/01/28 04:18:24;;;;;;;30.13;9.13;;;5.00;99.90;;;;;;4967742;28;20472;-67
2022/01/28 04:20:50;;;;;;;36.00;9.23;;;5.10;99.90;;;;;;4984078;28;20170;-67
2022/01/28 04:23:16;;;;;;;32.97;7.57;;;5.00;99.90;;;;;;4963957;28;20046;-67
2022/01/28 04:25:41;;;;;;;38.33;9.48;;;5.00;99.90;;;;;;4961592;28;20084;-67
2022/01/28 04:28:07;;;;;;;35.28;8.90;;;5.00;99.90;;;;;;4948273;28;20142;-67
2022/01/28 04:30:33;;;;;;;52.20;8.93;;;5.00;99.90;;;;;;4968163;28;20162;-67
2022/01/28 04:32:58;;;;;;;51.70;10.18;;;5.00;99.90;;;;;;4966531;28;20042;-67
2022/01/28 04:35:24;;;;;;;39.80;9.80;;;5.00;99.90;;;;;;4967740;28;20030;-66
2022/01/28 04:40:33;;;;;;;32.63;8.63;;;5.00;99.90;;;;;;4969014;28;20062;-67
2022/01/28 04:43:24;;;;;;;42.50;8.95;;;4.90;99.90;;;;;;4966504;28;20126;-67
2022/01/28 04:46:00;;;;;;;45.00;9.15;;;4.90;99.90;;;;;;4958670;28;20050;-67
2022/01/28 04:48:34;;;;;;;42.67;9.93;;;4.80;99.90;;;;;;4963344;28;20501;-67
2022/01/28 04:56:41;;;;;;;25.77;7.78;;;4.70;99.90;;;;;;4967530;28;20058;-67
2022/01/28 05:04:41;;;;;;;39.17;9.98;;;4.60;99.90;;;;;;4965811;28;20055;-67
2022/01/28 05:15:29;;;;;;;42.53;10.07;;;4.60;99.90;;;;;;4964189;28;20098;-66
2022/01/28 05:24:10;;;;;;;49.80;11.20;;;4.60;99.90;;;;;;4967581;28;20676;-67
2022/01/28 05:28:53;;;;;;;41.33;9.88;;;4.60;99.90;;;;;;4962998;28;20051;-67
2022/01/28 05:31:20;;;;;;;37.72;9.77;;;4.70;99.90;;;;;;4967420;28;20039;-67
2022/01/28 05:33:46;;;;;;;51.28;9.18;;;4.70;99.90;;;;;;4967589;28;20126;-67
2022/01/28 05:36:12;;;;;;;37.28;10.23;;;4.70;99.90;;;;;;4968493;28;20066;-67
2022/01/28 05:38:39;;;;;;;43.83;9.88;;;4.60;99.90;;;;;;4967108;28;20368;-67
2022/01/28 05:41:04;;;;;;;42.30;10.82;;;4.60;99.90;;;;;;4963162;28;20051;-67
2022/01/28 05:43:30;;;;;;;60.22;9.82;;;4.60;99.90;;;;;;4970929;28;20460;-67
2022/01/28 05:45:55;;;;;;;52.40;10.68;;;4.50;99.90;;;;;;4971273;28;20114;-67
2022/01/28 05:48:21;;;;;;;34.80;8.80;;;4.50;99.90;;;;;;4972294;28;20039;-67
2022/01/28 05:50:48;;;;;;;38.92;8.77;;;4.40;99.90;;;;;;4970234;28;20055;-67
2022/01/28 05:53:14;;;;;;;55.13;9.73;;;4.40;99.90;;;;;;4972754;28;20050;-67
2022/01/28 05:55:40;;;;;;;38.70;9.68;;;4.40;99.90;;;;;;4970151;28;20035;-67
2022/01/28 05:58:06;;;;;;;36.80;11.65;;;4.40;99.90;;;;;;4970595;28;20447;-67
2022/01/28 06:00:32;;;;;;;49.30;10.55;;;4.40;99.90;;;;;;4972601;28;20097;-67
2022/01/28 06:02:58;;;;;;;41.30;9.48;;;4.40;99.90;;;;;;4970468;28;20106;-67
2022/01/28 06:05:29;;;;;;;36.38;9.18;;;4.40;99.90;;;;;;4967803;28;20760;-67
2022/01/28 06:07:56;;;;;;;36.88;8.85;;;4.40;99.90;;;;;;4982134;28;20137;-67
2022/01/28 06:10:21;;;;;;;38.47;10.20;;;4.40;99.90;;;;;;4963682;28;20076;-67
2022/01/28 06:12:47;;;;;;;60.53;11.20;;;4.40;99.90;;;;;;4965476;28;20111;-67
2022/01/28 06:15:13;;;;;;;45.88;10.13;;;4.40;99.90;;;;;;4985414;28;20078;-67
2022/01/28 06:17:39;;;;;;;35.20;8.63;;;4.40;99.90;;;;;;4966612;28;20047;-67
2022/01/28 06:20:08;;;;;;;36.40;9.88;;;4.40;99.90;;;;;;4967067;28;20050;-67
2022/01/28 06:22:38;;;;;;;32.38;10.73;;;4.50;99.90;;;;;;4968651;28;20070;-67
2022/01/28 06:25:05;;;;;;;52.65;10.70;;;4.50;99.90;;;;;;4967771;28;20049;-67
2022/01/28 06:27:30;;;;;;;39.97;9.65;;;4.50;99.90;;;;;;4970248;28;20042;-67
2022/01/28 06:29:56;;;;;;;43.67;9.85;;;4.60;99.90;;;;;;4969344;28;20049;-67
2022/01/28 06:32:22;;;;;;;42.83;10.23;;;4.60;99.90;;;;;;4963108;28;20471;-67
2022/01/28 06:34:47;;;;;;;51.53;10.27;;;4.60;99.90;;;;;;4967557;28;20043;-67
2022/01/28 06:37:13;;;;;;;37.65;9.50;;;4.60;99.90;;;;;;4954342;28;20488;-66
2022/01/28 06:39:39;;;;;;;29.88;7.97;;;4.60;99.90;;;;;;4969159;28;20126;-66
2022/01/28 06:42:05;;;;;;;41.92;10.00;;;4.60;99.90;;;;;;4966401;28;20038;-67
2022/01/28 06:44:31;;;;;;;53.67;9.95;;;4.60;99.90;;;;;;4972277;28;20448;-66
2022/01/28 06:46:57;;;;;;;40.72;9.70;;;4.60;99.90;;;;;;4969744;28;20456;-67
2022/01/28 06:49:23;;;;;;;31.52;8.90;;;4.60;99.90;;;;;;4971025;28;20046;-67
2022/01/28 06:51:48;;;;;;;50.67;10.23;;;4.60;99.90;;;;;;4967922;28;20059;-67
2022/01/28 06:54:14;;;;;;;46.17;9.65;;;4.60;99.90;;;;;;4970252;28;20102;-67
2022/01/28 06:56:40;;;;;;;37.22;8.10;;;4.60;99.90;;;;;;4969627;28;20051;-67
2022/01/28 06:59:05;;;;;;;48.65;10.90;;;4.60;99.90;;;;;;4969101;28;20054;-68
2022/01/28 07:01:31;;;;;;;40.85;10.48;;;4.60;99.90;;;;;;4971506;28;20550;-67
2022/01/28 07:03:57;;;;;;;60.25;11.23;;;4.60;99.90;;;;;;4969036;28;20586;-67
2022/01/28 07:06:23;;;;;;;35.33;8.13;;;4.50;99.90;;;;;;4970184;28;20046;-67
2022/01/28 07:08:50;;;;;;;31.42;9.52;;;4.50;99.90;;;;;;4968959;28;20526;-67
2022/01/28 07:11:17;;;;;;;48.88;10.80;;;4.50;99.90;;;;;;4968311;28;20046;-67
2022/01/28 07:13:43;;;;;;;49.42;10.63;;;4.50;99.90;;;;;;4969537;28;20081;-66
2022/01/28 07:16:08;;;;;;;73.60;11.05;;;4.50;99.90;;;;;;4969201;28;20043;-67
2022/01/28 07:18:34;;;;;;;40.80;8.40;;;4.40;99.90;;;;;;4969942;28;20463;-67
2022/01/28 07:21:00;;;;;;;50.00;10.65;;;4.40;99.90;;;;;;4969926;28;20679;-67
2022/01/28 07:23:26;;;;;;;46.00;10.00;;;4.40;99.90;;;;;;4984522;28;20043;-67
2022/01/28 07:25:52;;;;;;;48.50;10.15;;;4.40;99.90;;;;;;4963345;28;20377;-67
2022/01/28 07:28:18;;;;;;;46.08;9.60;;;4.30;99.90;;;;;;4969396;28;20031;-67
2022/01/28 07:30:43;;;;;;;53.78;8.82;;;4.30;99.90;;;;;;4970664;28;20058;-67
2022/01/28 07:33:10;;;;;;;51.00;9.60;;;4.30;99.90;;;;;;4968074;28;20050;-67
2022/01/28 07:35:36;;;;;;;42.72;10.57;;;4.30;99.90;;;;;;4966597;28;21411;-67
2022/01/28 07:38:03;;;;;;;33.58;10.27;;;4.20;99.90;;;;;;4968154;28;20512;-67
2022/01/28 07:40:29;;;;;;;43.05;9.23;;;4.20;99.90;;;;;;4970413;28;20500;-67
2022/01/28 07:42:54;;;;;;;36.15;8.55;;;4.30;99.90;;;;;;4968636;28;20038;-67
2022/01/28 07:45:21;;;;;;;43.58;9.68;;;4.30;99.90;;;;;;4969771;28;20051;-67
2022/01/28 07:47:46;;;;;;;34.22;9.90;;;4.30;99.90;;;;;;4983210;28;20125;-67
2022/01/28 07:50:14;;;;;;;36.00;8.27;;;4.30;99.90;;;;;;4968365;28;20122;-67
2022/01/28 07:52:40;;;;;;;54.13;10.85;;;4.30;99.90;;;;;;4968430;28;20093;-66
2022/01/28 07:55:10;;;;;;;37.65;9.90;;;4.20;99.90;;;;;;4969123;28;20039;-67
2022/01/28 07:57:35;;;;;;;36.03;9.00;;;4.20;99.90;;;;;;4968231;28;20074;-67
2022/01/28 08:00:06;;;;;;;38.08;9.00;;;4.20;99.90;;;;;;4966181;28;20097;-67
2022/01/28 08:02:32;;;;;;;38.55;9.52;;;4.20;99.90;;;;;;4963289;28;20397;-67
2022/01/28 08:04:57;;;;;;;41.97;10.05;;;4.20;99.90;;;;;;4967924;28;20093;-66
2022/01/28 08:07:23;;;;;;;92.07;20.00;;;4.10;99.90;;;;;;4966665;28;20039;-67
2022/01/28 08:09:49;;;;;;;53.15;11.88;;;4.10;99.90;;;;;;4968917;28;20088;-67
2022/01/28 08:12:14;;;;;;;40.20;9.48;;;4.20;99.90;;;;;;4967713;28;20051;-67
2022/01/28 08:14:40;;;;;;;33.55;9.73;;;4.20;99.90;;;;;;4961065;28;20043;-67
2022/01/28 08:17:05;;;;;;;47.53;10.70;;;4.10;99.90;;;;;;4968915;28;20039;-67
2022/01/28 08:19:31;;;;;;;34.50;8.68;;;4.10;99.90;;;;;;4967228;28;20781;-66
2022/01/28 08:21:57;;;;;;;52.17;9.57;;;4.10;99.90;;;;;;4968752;28;20118;-67
2022/01/28 08:24:23;;;;;;;53.58;10.52;;;4.10;99.90;;;;;;4965516;28;20046;-67
2022/01/28 08:26:48;;;;;;;45.13;11.02;;;4.10;99.90;;;;;;4963422;28;20045;-67
2022/01/28 08:29:14;;;;;;;45.47;10.38;;;4.10;99.90;;;;;;4966568;28;20133;-67
2022/01/28 08:31:40;;;;;;;40.67;10.30;;;4.10;99.90;;;;;;4965072;28;20074;-67
2022/01/28 08:34:06;;;;;;;49.33;10.73;;;4.10;99.90;;;;;;4966985;28;20070;-67
2022/01/28 08:36:33;;;;;;;39.55;8.85;;;4.20;99.90;;;;;;4968081;28;20042;-67
2022/01/28 08:38:59;;;;;;;43.75;11.50;;;4.20;99.90;;;;;;4968532;28;20045;-67
2022/01/28 08:41:25;;;;;;;41.70;10.20;;;4.20;99.90;;;;;;4967834;28;20046;-67
2022/01/28 08:43:54;;;;;;;64.25;12.13;;;4.20;99.90;;;;;;4965907;28;20065;-67
2022/01/28 08:46:20;;;;;;;48.90;10.30;;;4.30;99.90;;;;;;4967915;28;20045;-67
2022/01/28 08:48:45;;;;;;;53.25;9.30;;;4.30;99.90;;;;;;4977360;28;20440;-65
2022/01/28 08:51:11;;;;;;;41.60;9.80;;;4.30;99.90;;;;;;4955057;28;20506;-65
2022/01/28 08:53:38;;;;;;;46.38;9.38;;;4.30;99.90;;;;;;4966820;28;20046;-65
2022/01/28 08:56:04;;;;;;;44.47;8.68;;;4.30;99.90;;;;;;4963072;28;20893;-65
2022/01/28 08:58:30;;;;;;;48.60;11.05;;;4.40;99.90;;;;;;4982417;28;20082;-65
2022/01/28 09:00:55;;;;;;;39.33;9.07;;;4.40;99.90;;;;;;4978668;28;20126;-64
2022/01/28 09:03:22;;;;;;;44.00;9.32;;;4.40;99.90;;;;;;4967206;28;20051;-66
2022/01/28 09:05:48;;;;;;;57.40;10.00;;;4.40;99.90;;;;;;4961573;28;20054;-65
2022/01/28 09:08:14;;;;;;;51.67;10.02;;;4.50;99.90;;;;;;4964314;28;20039;-65
2022/01/28 09:10:57;;;;;;;37.88;8.52;;;4.60;99.90;;;;;;4968226;28;20480;-65
2022/01/28 09:13:30;;;;;;;49.08;10.60;;;4.60;99.90;;;;;;4961406;28;20039;-65
2022/01/28 09:15:57;;;;;;;46.83;10.77;;;4.70;99.90;;;;;;4971661;28;20047;-65
2022/01/28 09:18:24;;;;;;;45.58;10.70;;;4.80;99.90;;;;;;4964923;28;20054;-65
2022/01/28 09:20:50;;;;;;;41.00;9.73;;;4.80;99.90;;;;;;4984858;28;20573;-65
2022/01/28 09:23:17;;;;;;;32.03;8.68;;;4.90;99.90;;;;;;4967883;28;20125;-64
2022/01/28 09:25:43;;;;;;;47.17;9.43;;;4.90;99.90;;;;;;4972836;28;20054;-65
2022/01/28 09:28:09;;;;;;;46.28;9.98;;;4.90;99.90;;;;;;4969928;28;20050;-66
2022/01/28 09:30:35;;;;;;;61.53;9.77;;;4.90;99.90;;;;;;4972452;28;20089;-65
2022/01/28 09:33:02;;;;;;;43.92;10.27;;;5.00;99.90;;;;;;4970053;28;20039;-65
2022/01/28 09:35:29;;;;;;;49.28;9.70;;;5.00;99.90;;;;;;4965214;28;20049;-65
2022/01/28 09:37:54;;;;;;;35.22;8.90;;;5.10;99.90;;;;;;4971746;28;20046;-66
2022/01/28 09:40:21;;;;;;;41.85;9.65;;;5.10;99.90;;;;;;4968796;28;20053;-66
2022/01/28 09:42:47;;;;;;;52.30;10.02;;;5.10;99.90;;;;;;4970752;28;20047;-66
2022/01/28 09:45:20;;;;;;;29.73;8.35;;;5.20;99.90;;;;;;4972143;28;20046;-67
2022/01/28 09:47:46;;;;;;;34.67;10.13;;;5.30;99.90;;;;;;4971637;28;20039;-67
2022/01/28 09:50:13;;;;;;;50.55;10.98;;;5.40;99.90;;;;;;4971665;28;20712;-67
2022/01/28 09:52:39;;;;;;;37.15;10.95;;;5.50;99.90;;;;;;4970700;28;20061;-67
2022/01/28 09:55:07;;;;;;;60.40;9.80;;;5.60;99.90;;;;;;4969413;28;20043;-67
2022/01/28 09:57:33;;;;;;;38.50;9.57;;;5.70;99.90;;;;;;4971981;28;20053;-67
2022/01/28 09:59:58;;;;;;;41.17;9.45;;;5.80;99.90;;;;;;4969846;28;20511;-67
2022/01/28 10:02:57;;;;;;;48.10;9.30;;;5.90;99.90;;;;;;4972061;28;20145;-67
2022/01/28 10:05:29;;;;;;;46.22;9.75;;;6.00;99.90;;;;;;4982218;28;20122;-68
2022/01/28 10:08:23;;;;;;;38.10;8.65;;;6.10;99.90;;;;;;4964753;28;21053;-68
2022/01/28 10:11:02;;;;;;;38.55;7.90;;;6.30;99.90;;;;;;4967336;28;20055;-68
2022/01/28 10:13:35;;;;;;;50.53;9.32;;;6.30;99.90;;;;;;4972091;28;20047;-67
2022/01/28 10:16:13;;;;;;;54.50;10.80;;;6.40;99.90;;;;;;4970888;28;20092;-67
2022/01/28 10:18:48;;;;;;;54.50;8.63;;;6.50;99.90;;;;;;4959926;28;20054;-67
2022/01/28 10:21:25;;;;;;;32.55;9.10;;;6.50;99.90;;;;;;4969789;28;20834;-67
2022/01/28 10:24:19;;;;;;;35.83;9.55;;;6.50;99.90;;;;;;4963856;28;20055;-67
2022/01/28 10:26:55;;;;;;;53.40;10.00;;;6.60;99.90;;;;;;4953217;28;20058;-67
2022/01/28 10:29:24;;;;;;;36.20;9.48;;;6.60;99.90;;;;;;4969240;28;20053;-68
2022/01/28 10:31:56;;;;;;;38.58;9.25;;;6.60;99.90;;;;;;4971314;28;20330;-67
2022/01/28 10:34:36;;;;;;;38.90;9.00;;;6.70;99.90;;;;;;4970889;28;20047;-67
2022/01/28 10:37:21;;;;;;;44.78;9.52;;;6.70;99.90;;;;;;4970403;28;20884;-68
2022/01/28 10:39:50;;;;;;;39.47;10.75;;;6.80;99.90;;;;;;4969572;28;20082;-67
2022/01/28 10:42:33;;;;;;;36.05;7.88;;;6.90;99.90;;;;;;4968748;28;20121;-67
2022/01/28 10:45:12;;;;;;;44.55;10.38;;;6.90;99.90;;;;;;4967894;28;20055;-67
2022/01/28 10:47:53;;;;;;;34.20;8.05;;;7.00;99.90;;;;;;4963069;28;20050;-68
2022/01/28 10:50:34;;;;;;;49.08;10.63;;;7.00;99.90;;;;;;4965606;28;20051;-70
2022/01/28 10:53:14;;;;;;;55.47;10.25;;;7.00;99.90;;;;;;4965005;28;20531;-70
2022/01/28 10:55:49;;;;;;;40.25;10.52;;;7.00;99.90;;;;;;4968527;28;20035;-71
2022/01/28 10:58:17;;;;;;;43.83;10.07;;;7.10;99.90;;;;;;4967238;28;20118;-70
2022/01/28 11:00:48;;;;;;;37.92;8.45;;;7.10;99.90;;;;;;4967702;28;20879;-71
2022/01/28 11:03:16;;;;;;;44.35;9.38;;;7.20;99.90;;;;;;4969751;28;20408;-71
2022/01/28 11:05:43;;;;;;;;;;;7.30;99.90;;;;;;4971590;28;20054;-70
2022/01/28 11:08:13;;;;;;;46.70;9.30;;;7.40;99.90;;;;;;4967423;28;19932;-70
2022/01/28 11:10:40;;;;;;;49.70;9.18;;;7.40;99.90;;;;;;4985818;28;20043;-69
2022/01/28 11:13:05;;;;;;;59.90;11.38;;;7.40;99.90;;;;;;4982275;28;20483;-70
2022/01/28 11:15:32;;;;;;;33.15;8.25;;;7.40;99.90;;;;;;4985074;28;20104;-70
2022/01/28 11:18:00;;;;;;;42.28;8.93;;;7.50;99.90;;;;;;4973223;28;20065;-71
2022/01/28 11:20:37;;;;;;;40.30;7.25;;;7.40;99.90;;;;;;4984817;28;20054;-71
2022/01/28 11:23:08;;;;;;;41.70;9.43;;;7.40;99.90;;;;;;4968024;28;20129;-71
2022/01/28 11:25:47;;;;;;;38.03;8.82;;;7.40;99.90;;;;;;4970452;28;20109;-71
2022/01/28 11:28:13;;;;;;;42.47;9.52;;;7.50;99.90;;;;;;4981688;28;20082;-72
2022/01/28 11:30:51;;;;;;;36.17;9.07;;;7.50;99.90;;;;;;4983750;28;20050;-71
2022/01/28 11:33:17;;;;;;;30.40;8.45;;;7.50;99.90;;;;;;4964612;28;20562;-72
2022/01/28 11:35:52;;;;;;;51.47;10.55;;;7.50;99.90;;;;;;4963525;28;20054;-71
2022/01/28 11:38:39;;;;;;;45.28;8.48;;;7.60;99.90;;;;;;4970092;28;20108;-70
2022/01/28 11:41:11;;;;;;;39.78;8.80;;;7.60;99.90;;;;;;4968703;28;20101;-70
2022/01/28 11:43:54;;;;;;;43.47;8.68;;;7.60;99.90;;;;;;4967101;28;20053;-70
2022/01/28 11:46:36;;;;;;;30.73;7.72;;;7.60;99.90;;;;;;4966705;28;20046;-70
2022/01/28 11:49:02;;;;;;;41.30;9.40;;;7.60;99.90;;;;;;4968994;28;20495;-70
2022/01/28 11:51:37;;;;;;;26.27;7.18;;;7.60;99.90;;;;;;4983630;28;20083;-70
2022/01/28 11:54:11;;;;;;;35.08;8.77;;;7.60;99.90;;;;;;4968749;28;20061;-70
2022/01/28 11:56:57;;;;;;;36.20;9.00;;;7.50;99.90;;;;;;4968580;28;20039;-71
2022/01/28 11:59:30;;;;;;;43.03;10.10;;;7.60;99.90;;;;;;4967139;28;20078;-69
2022/01/28 12:01:55;;;;;;;52.67;10.43;;;7.60;99.90;;;;;;4984971;28;20089;-69
2022/01/28 12:04:24;;;;;;;36.92;8.50;;;7.60;99.90;;;;;;4966523;28;20838;-68
2022/01/28 12:07:15;;;;;;;44.05;9.52;;;7.60;99.90;;;;;;4968252;28;20112;-71
2022/01/28 12:09:52;;;;;;;46.80;8.55;;;7.70;99.90;;;;;;4967843;28;20046;-71
2022/01/28 12:12:45;;;;;;;36.25;8.57;;;7.60;99.90;;;;;;4968054;28;20050;-71
2022/01/28 12:15:16;;;;;;;28.08;7.93;;;7.60;99.90;;;;;;4958535;28;20595;-71
2022/01/28 12:17:45;;;;;;;34.30;8.85;;;7.60;99.90;;;;;;4969650;28;20047;-71
2022/01/28 12:20:12;;;;;;;33.53;7.95;;;7.60;99.90;;;;;;4966069;28;20058;-71
2022/01/28 12:23:10;;;;;;;49.13;8.70;;;7.60;99.90;;;;;;4978644;28;20054;-71
2022/01/28 12:25:35;;;;;;;38.42;9.75;;;7.70;99.90;;;;;;4949807;28;20831;-71
2022/01/28 12:28:15;;;;;;;42.00;9.52;;;7.80;99.90;;;;;;4967904;28;20046;-70
2022/01/28 12:30:58;;;;;;;62.28;10.52;;;7.80;99.90;;;;;;4957982;28;20053;-71
2022/01/28 12:33:25;;;;;;;29.50;7.43;;;7.80;99.90;;;;;;4969563;28;20563;-71
2022/01/28 12:35:53;;;;;;;35.60;7.82;;;7.80;99.90;;;;;;4965952;28;20054;-71
2022/01/28 12:38:25;;;;;;;27.83;7.95;;;7.80;99.90;;;;;;4945382;28;20057;-71
2022/01/28 12:40:54;;;;;;;35.70;8.63;;;7.80;99.90;;;;;;4968286;28;20050;-70
2022/01/28 12:43:20;;;;;;;;;;;7.80;99.90;;;;;;4964156;28;20054;-69
2022/01/28 12:46:02;;;;;;;37.78;8.30;;;7.80;99.90;;;;;;4965784;28;19961;-69
2022/01/28 12:48:28;;;;;;;25.83;7.50;;;7.80;99.90;;;;;;4982591;28;20050;-69
2022/01/28 12:50:55;;;;;;;34.47;7.80;;;7.80;99.90;;;;;;4963549;28;20046;-69
2022/01/28 12:53:35;;;;;;;35.08;8.38;;;7.90;99.90;;;;;;4949472;28;20050;-69
2022/01/28 12:56:04;;;;;;;32.88;7.72;;;7.90;99.90;;;;;;4965883;28;20053;-69
2022/01/28 12:58:50;;;;;;;43.60;8.05;;;8.00;99.90;;;;;;4973809;28;20047;-69
2022/01/28 13:01:18;;;;;;;32.90;8.93;;;8.20;99.90;;;;;;4969054;28;20117;-69
2022/01/28 13:03:49;;;;;;;37.15;8.20;;;8.30;99.90;;;;;;4950378;28;20094;-70
2022/01/28 13:06:42;;;;;;;42.03;7.55;;;8.40;99.90;;;;;;4983560;28;20132;-70
2022/01/28 13:09:18;;;;;;;45.53;8.27;;;8.40;99.90;;;;;;4959483;28;20046;-72
2022/01/28 13:12:03;;;;;;;42.83;8.90;;;8.40;99.90;;;;;;4964720;28;20043;-71
2022/01/28 13:14:32;;;;;;;31.75;7.13;;;8.40;99.90;;;;;;4957802;28;20054;-72
2022/01/28 13:16:59;;;;;;;42.97;7.22;;;8.40;99.90;;;;;;4968141;28;20109;-70
2022/01/28 13:19:25;;;;;;;33.22;8.23;;;8.40;99.90;;;;;;4964831;28;20126;-70
2022/01/28 13:21:51;;;;;;;49.88;8.63;;;8.40;99.90;;;;;;4966744;28;20121;-71
2022/01/28 13:24:20;;;;;;;40.55;8.80;;;8.40;99.90;;;;;;4967103;28;20046;-71
2022/01/28 13:27:01;;;;;;;34.33;6.70;;;8.40;99.90;;;;;;4984070;28;20080;-71
2022/01/28 13:29:49;;;;;;;30.58;7.82;;;8.40;99.90;;;;;;4966125;28;20122;-71
2022/01/28 13:32:28;;;;;;;48.78;7.43;;;8.40;99.90;;;;;;4965909;28;20086;-70
2022/01/28 13:34:56;;;;;;;41.10;8.15;;;8.30;99.90;;;;;;4957443;28;20046;-70
2022/01/28 13:37:44;;;;;;;28.30;6.80;;;8.40;99.90;;;;;;4968781;28;20061;-70
2022/01/28 13:40:18;;;;;;;18.33;7.53;;;8.30;99.90;;;;;;4963715;28;20133;-70
2022/01/28 13:42:56;;;;;;;29.27;6.38;;;8.30;99.90;;;;;;4971020;28;20073;-71
2022/01/28 13:45:30;;;;;;;26.90;6.93;;;8.20;99.90;;;;;;4981857;28;20051;-70
2022/01/28 13:47:55;;;;;;;33.33;6.90;;;8.20;99.90;;;;;;4979129;28;20055;-71
2022/01/28 13:50:34;;;;;;;32.08;8.35;;;8.10;99.90;;;;;;4980776;28;20061;-70
2022/01/28 13:55:50;;;;;;;50.08;8.73;;;8.00;99.90;;;;;;4963419;28;20051;-71
2022/01/28 13:58:16;;;;;;;34.15;7.45;;;7.90;99.90;;;;;;4967586;28;20089;-70
2022/01/28 14:00:48;;;;;;;41.45;7.47;;;7.90;99.90;;;;;;4967304;28;20043;-70
2022/01/28 14:03:21;;;;;;;29.92;7.78;;;7.90;99.90;;;;;;4982837;28;20452;-70
2022/01/28 14:05:49;;;;;;;39.13;7.65;;;7.90;99.90;;;;;;4986539;28;20059;-70
2022/01/28 14:08:15;;;;;;;29.95;7.80;;;7.90;99.90;;;;;;4968499;28;20142;-71
2022/01/28 14:10:41;;;;;;;44.40;7.28;;;7.90;99.90;;;;;;4968782;28;20403;-71
2022/01/28 14:13:21;;;;;;;34.67;9.40;;;7.90;99.90;;;;;;4984618;28;20051;-72
2022/01/28 14:16:04;;;;;;;36.03;7.55;;;7.80;99.90;;;;;;4976009;28;20073;-70
2022/01/28 14:18:30;;;;;;;39.63;9.02;;;7.70;99.90;;;;;;4979450;28;20057;-70
2022/01/28 14:20:56;;;;;;;34.90;8.15;;;7.70;99.90;;;;;;4985058;28;20051;-71
2022/01/28 14:23:22;;;;;;;31.98;8.13;;;7.60;99.90;;;;;;4971479;28;20082;-72
2022/01/28 14:25:48;;;;;;;83.35;19.08;;;7.60;99.90;;;;;;4985300;28;20091;-72
2022/01/28 14:30:41;;;;;;;42.25;8.60;;;7.50;99.90;;;;;;4968840;28;20456;-73
2022/01/28 14:33:09;;;;;;;32.27;6.57;;;7.50;99.90;;;;;;4970481;28;20047;-73
2022/01/28 14:35:35;;;;;;;;;;;7.40;99.90;;;;;;4986204;28;20386;-72